createdAt,value
2023-03-25T00:00:45.190Z,14.47
2023-03-25T00:01:47.560Z,14.46
2023-03-25T00:02:54.974Z,14.48
2023-03-25T00:04:00.241Z,14.50
2023-03-25T00:05:03.560Z,14.53
2023-03-25T00:06:07.679Z,14.54
2023-03-25T00:07:10.845Z,14.54
2023-03-25T00:08:15.204Z,14.54
2023-03-25T00:09:19.131Z,14.55
2023-03-25T00:10:21.831Z,14.49
2023-03-25T00:11:28.221Z,14.45
2023-03-25T00:12:31.161Z,14.43
2023-03-25T00:13:35.142Z,14.40
2023-03-25T00:14:39.248Z,14.38
2023-03-25T00:15:45.288Z,14.37
2023-03-25T00:16:48.353Z,14.34
2023-03-25T00:17:50.783Z,14.39
2023-03-25T00:18:53.740Z,14.34
2023-03-25T00:19:56.339Z,14.31
2023-03-25T00:21:04.673Z,14.26
2023-03-25T00:22:08.208Z,14.26
2023-03-25T00:23:11.938Z,14.24
2023-03-25T00:24:16.138Z,14.28
2023-03-25T00:25:20.173Z,14.32
2023-03-25T00:26:23.131Z,14.30
2023-03-25T00:27:25.375Z,14.33
2023-03-25T00:28:33.684Z,14.28
2023-03-25T00:29:35.990Z,14.26
2023-03-25T00:30:40.367Z,14.30
2023-03-25T00:31:43.260Z,14.36
2023-03-25T00:32:49.256Z,14.34
2023-03-25T00:33:56.414Z,14.30
2023-03-25T00:34:59.295Z,14.23
2023-03-25T00:36:03.876Z,14.24
2023-03-25T00:37:06.142Z,14.24
2023-03-25T00:38:09.688Z,14.22
2023-03-25T00:39:12.281Z,14.26
2023-03-25T00:40:15.296Z,14.29
2023-03-25T00:41:25.216Z,14.29
2023-03-25T00:42:27.850Z,14.22
2023-03-25T00:43:30.088Z,14.05
2023-03-25T00:44:33.612Z,14.09
2023-03-25T00:45:35.857Z,14.07
2023-03-25T00:46:38.346Z,14.12
2023-03-25T00:47:41.178Z,14.14
2023-03-25T00:48:43.910Z,14.10
2023-03-25T00:49:46.299Z,14.14
2023-03-25T00:50:48.662Z,14.16
2023-03-25T00:51:52.818Z,14.20
2023-03-25T00:52:55.819Z,14.18
2023-03-25T00:54:02.925Z,14.16
2023-03-25T00:55:07.598Z,14.17
2023-03-25T00:56:10.420Z,14.18
2023-03-25T00:57:13.440Z,14.16
2023-03-25T00:58:15.948Z,14.20
2023-03-25T00:59:18.416Z,14.26
2023-03-25T01:00:20.981Z,14.21
2023-03-25T01:01:26.619Z,14.13
2023-03-25T01:02:31.390Z,14.12
2023-03-25T01:03:35.783Z,14.12
2023-03-25T01:04:41.474Z,14.09
2023-03-25T01:05:45.091Z,14.09
2023-03-25T01:06:50.553Z,14.10
2023-03-25T01:07:52.636Z,14.04
2023-03-25T01:08:57.479Z,14.00
2023-03-25T01:09:59.869Z,13.96
2023-03-25T01:11:02.455Z,13.94
2023-03-25T01:12:05.432Z,13.87
2023-03-25T01:13:07.755Z,13.87
2023-03-25T01:14:16.424Z,13.94
2023-03-25T01:15:18.819Z,14.00
2023-03-25T01:16:23.082Z,14.06
2023-03-25T01:17:25.771Z,14.06
2023-03-25T01:18:27.833Z,14.06
2023-03-25T01:19:30.675Z,14.12
2023-03-25T01:20:33.336Z,14.12
2023-03-25T01:21:36.268Z,14.15
2023-03-25T01:22:38.643Z,14.21
2023-03-25T01:23:41.451Z,14.20
2023-03-25T01:24:43.768Z,14.21
2023-03-25T01:25:46.093Z,14.16
2023-03-25T01:26:48.722Z,14.17
2023-03-25T01:27:50.844Z,14.20
2023-03-25T01:28:53.508Z,14.19
2023-03-25T01:29:55.741Z,14.22
2023-03-25T01:31:04.058Z,14.21
2023-03-25T01:32:06.324Z,14.13
2023-03-25T01:33:08.416Z,14.17
2023-03-25T01:34:10.801Z,14.18
2023-03-25T01:35:13.206Z,14.19
2023-03-25T01:36:17.104Z,14.14
2023-03-25T01:37:20.112Z,14.12
2023-03-25T01:38:23.002Z,14.09
2023-03-25T01:39:25.206Z,14.12
2023-03-25T01:40:28.720Z,14.11
2023-03-25T01:41:46.322Z,14.11
2023-03-25T01:42:36.199Z,14.11
2023-03-25T01:43:38.424Z,14.10
2023-03-25T01:44:44.103Z,14.11
2023-03-25T01:45:46.834Z,14.06
2023-03-25T01:46:52.467Z,14.01
2023-03-25T01:48:01.237Z,13.99
2023-03-25T01:49:07.659Z,13.98
2023-03-25T01:50:13.746Z,13.96
2023-03-25T01:51:19.574Z,13.96
2023-03-25T01:52:25.774Z,13.96
2023-03-25T01:53:31.392Z,13.94
2023-03-25T01:54:36.764Z,13.89
2023-03-25T01:55:39.816Z,13.92
2023-03-25T01:56:47.032Z,13.93
2023-03-25T01:57:54.363Z,13.87
2023-03-25T01:58:58.938Z,13.85
2023-03-25T02:00:01.632Z,13.85
2023-03-25T02:01:04.525Z,13.80
2023-03-25T02:02:08.912Z,13.80
2023-03-25T02:03:13.928Z,13.75
2023-03-25T02:04:21.697Z,13.73
2023-03-25T02:05:27.573Z,13.73
2023-03-25T02:06:51.521Z,13.72
2023-03-25T02:07:57.838Z,13.75
2023-03-25T02:09:06.014Z,13.69
2023-03-25T02:10:10.935Z,13.71
2023-03-25T02:11:14.248Z,13.65
2023-03-25T02:12:16.645Z,13.60
2023-03-25T02:13:19.710Z,13.61
2023-03-25T02:14:25.806Z,13.64
2023-03-25T02:15:32.052Z,13.66
2023-03-25T02:16:55.153Z,13.69
2023-03-25T02:18:12.828Z,13.68
2023-03-25T02:19:52.178Z,13.66
2023-03-25T02:22:25.453Z,13.65
2023-03-25T02:23:55.656Z,13.50
2023-03-25T02:25:07.621Z,13.53
2023-03-25T02:26:30.520Z,13.55
2023-03-25T02:27:38.247Z,13.57
2023-03-25T02:28:50.462Z,13.51
2023-03-25T02:29:59.476Z,13.50
2023-03-25T02:31:28.070Z,13.48
2023-03-25T02:32:46.995Z,13.46
2023-03-25T02:34:16.548Z,13.50
2023-03-25T02:35:39.460Z,13.47
2023-03-25T02:37:05.290Z,13.50
2023-03-25T02:38:25.694Z,13.54
2023-03-25T02:39:44.101Z,13.50
2023-03-25T02:40:51.577Z,13.48
2023-03-25T02:42:18.278Z,13.47
2023-03-25T02:43:24.592Z,13.44
2023-03-25T02:44:37.086Z,13.40
2023-03-25T02:45:46.072Z,13.44
2023-03-25T02:46:54.891Z,13.47
2023-03-25T02:48:01.154Z,13.46
2023-03-25T02:49:16.457Z,13.46
2023-03-25T02:50:25.345Z,13.48
2023-03-25T02:51:34.293Z,13.49
2023-03-25T02:52:42.919Z,13.52
2023-03-25T02:53:48.642Z,13.55
2023-03-25T02:54:56.022Z,13.50
2023-03-25T02:56:01.927Z,13.47
2023-03-25T02:57:08.323Z,13.47
2023-03-25T02:58:14.464Z,13.51
2023-03-25T02:59:21.802Z,13.51
2023-03-25T03:00:28.011Z,13.47
2023-03-25T03:01:32.467Z,13.47
2023-03-25T03:02:36.609Z,13.47
2023-03-25T03:03:39.305Z,13.47
2023-03-25T03:04:49.261Z,13.50
2023-03-25T03:05:54.908Z,13.49
2023-03-25T03:06:57.565Z,13.51
2023-03-25T03:08:17.452Z,13.53
2023-03-25T03:10:55.279Z,13.57
2023-03-25T03:12:13.099Z,13.41
2023-03-25T03:13:40.217Z,13.40
2023-03-25T03:14:46.061Z,13.38
2023-03-25T03:16:01.053Z,13.34
2023-03-25T03:17:19.511Z,13.33
2023-03-25T03:18:37.021Z,13.25
2023-03-25T03:19:47.253Z,13.33
2023-03-25T03:21:00.138Z,13.32
2023-03-25T03:22:38.352Z,13.32
2023-03-25T03:23:59.226Z,13.35
2023-03-25T03:25:08.589Z,13.38
2023-03-25T03:26:15.458Z,13.42
2023-03-25T03:27:25.553Z,13.44
2023-03-25T03:28:34.189Z,13.45
2023-03-25T03:29:40.404Z,13.42
2023-03-25T03:30:46.359Z,13.39
2023-03-25T03:32:07.568Z,13.43
2023-03-25T03:33:21.332Z,13.46
2023-03-25T03:34:30.247Z,13.48
2023-03-25T03:35:39.594Z,13.50
2023-03-25T03:36:45.502Z,13.49
2023-03-25T03:37:51.495Z,13.45
2023-03-25T03:39:00.800Z,13.49
2023-03-25T03:40:06.925Z,13.47
2023-03-25T03:41:13.497Z,13.47
2023-03-25T03:42:25.478Z,13.37
2023-03-25T03:43:42.294Z,13.31
2023-03-25T03:44:48.632Z,13.22
2023-03-25T03:45:54.660Z,13.22
2023-03-25T03:47:00.935Z,13.17
2023-03-25T03:48:06.944Z,13.11
2023-03-25T03:49:16.606Z,13.12
2023-03-25T03:50:23.065Z,13.16
2023-03-25T03:51:31.694Z,13.13
2023-03-25T03:54:01.801Z,13.20
2023-03-25T03:55:12.682Z,13.06
2023-03-25T03:56:24.668Z,13.07
2023-03-25T03:57:31.327Z,13.16
2023-03-25T03:58:42.312Z,13.20
2023-03-25T03:59:57.328Z,13.17
2023-03-25T04:01:15.259Z,13.18
2023-03-25T04:02:38.038Z,13.17
2023-03-25T04:03:52.838Z,13.22
2023-03-25T04:04:57.372Z,13.23
2023-03-25T04:06:05.002Z,13.28
2023-03-25T04:07:11.094Z,13.27
2023-03-25T04:08:28.742Z,13.29
2023-03-25T04:09:51.861Z,13.26
2023-03-25T04:11:04.500Z,13.28
2023-03-25T04:12:22.389Z,13.33
2023-03-25T04:13:28.390Z,13.39
2023-03-25T04:14:32.049Z,13.36
2023-03-25T04:15:34.316Z,13.39
2023-03-25T04:16:39.346Z,13.45
2023-03-25T04:17:42.900Z,13.42
2023-03-25T04:18:47.055Z,13.38
2023-03-25T04:19:51.823Z,13.34
2023-03-25T04:20:55.894Z,13.35
2023-03-25T04:21:58.194Z,13.30
2023-03-25T04:23:00.956Z,13.25
2023-03-25T04:24:04.124Z,13.28
2023-03-25T04:25:07.384Z,13.24
2023-03-25T04:26:12.096Z,13.30
2023-03-25T04:27:15.274Z,13.31
2023-03-25T04:28:19.359Z,13.25
2023-03-25T04:29:21.798Z,13.30
2023-03-25T04:30:25.954Z,13.29
2023-03-25T04:31:31.485Z,13.33
2023-03-25T04:32:34.634Z,13.33
2023-03-25T04:33:36.937Z,13.31
2023-03-25T04:34:40.816Z,13.29
2023-03-25T04:35:43.218Z,13.25
2023-03-25T04:36:49.582Z,13.17
2023-03-25T04:37:57.377Z,13.10
2023-03-25T04:39:01.206Z,13.16
2023-03-25T04:40:06.422Z,13.15
2023-03-25T04:41:10.077Z,13.14
2023-03-25T04:42:13.286Z,13.09
2023-03-25T04:43:16.916Z,13.07
2023-03-25T04:44:21.353Z,13.08
2023-03-25T04:45:24.912Z,13.07
2023-03-25T04:46:28.123Z,13.07
2023-03-25T04:47:31.223Z,13.10
2023-03-25T04:48:38.597Z,13.12
2023-03-25T04:49:45.388Z,13.15
2023-03-25T04:50:48.420Z,13.21
2023-03-25T04:51:52.724Z,13.21
2023-03-25T04:53:00.322Z,13.19
2023-03-25T04:54:03.682Z,13.14
2023-03-25T04:55:06.786Z,13.16
2023-03-25T04:56:16.561Z,13.04
2023-03-25T04:57:19.747Z,12.94
2023-03-25T04:58:22.504Z,12.96
2023-03-25T04:59:26.540Z,12.89
2023-03-25T05:00:29.054Z,12.92
2023-03-25T05:01:32.575Z,12.96
2023-03-25T05:02:34.930Z,12.98
2023-03-25T05:03:39.426Z,12.97
2023-03-25T05:04:42.965Z,12.99
2023-03-25T05:05:45.430Z,12.98
2023-03-25T05:06:50.698Z,12.86
2023-03-25T05:07:58.533Z,12.89
2023-03-25T05:09:03.815Z,12.95
2023-03-25T05:10:08.806Z,12.98
2023-03-25T05:11:11.121Z,12.97
2023-03-25T05:12:13.176Z,12.99
2023-03-25T05:13:23.974Z,13.02
2023-03-25T05:14:26.434Z,13.00
2023-03-25T05:15:32.095Z,12.96
2023-03-25T05:16:35.224Z,13.00
2023-03-25T05:17:39.024Z,13.00
2023-03-25T05:18:41.484Z,12.99
2023-03-25T05:19:43.943Z,12.95
2023-03-25T05:20:48.491Z,12.98
2023-03-25T05:21:51.833Z,13.02
2023-03-25T05:22:56.170Z,13.05
2023-03-25T05:24:00.469Z,13.12
2023-03-25T05:25:06.319Z,13.21
2023-03-25T05:26:11.638Z,13.25
2023-03-25T05:27:14.512Z,13.26
2023-03-25T05:28:17.512Z,13.28
2023-03-25T05:29:20.764Z,13.30
2023-03-25T05:30:24.037Z,13.36
2023-03-25T05:31:26.243Z,13.34
2023-03-25T05:32:31.693Z,13.39
2023-03-25T05:33:42.794Z,13.47
2023-03-25T05:34:48.143Z,13.50
2023-03-25T05:35:50.738Z,13.55
2023-03-25T05:36:53.802Z,13.55
2023-03-25T05:37:57.368Z,13.58
2023-03-25T05:39:00.084Z,13.57
2023-03-25T05:40:03.437Z,13.60
2023-03-25T05:41:10.139Z,13.66
2023-03-25T05:42:12.615Z,13.66
2023-03-25T05:43:15.631Z,13.60
2023-03-25T05:44:18.334Z,13.62
2023-03-25T05:45:21.583Z,13.58
2023-03-25T05:46:24.277Z,13.59
2023-03-25T05:47:29.285Z,13.57
2023-03-25T05:48:32.468Z,13.54
2023-03-25T05:49:34.766Z,13.58
2023-03-25T05:51:53.683Z,13.70
2023-03-25T05:52:56.808Z,13.56
2023-03-25T05:53:59.540Z,13.51
2023-03-25T05:55:04.439Z,13.46
2023-03-25T05:56:08.069Z,13.43
2023-03-25T05:57:10.883Z,13.25
2023-03-25T05:58:13.342Z,13.25
2023-03-25T05:59:16.109Z,13.33
2023-03-25T06:00:20.761Z,13.33
2023-03-25T06:01:33.345Z,13.35
2023-03-25T06:02:29.947Z,13.33
2023-03-25T06:03:33.730Z,13.31
2023-03-25T06:05:47.964Z,13.51
2023-03-25T06:06:50.368Z,13.33
2023-03-25T06:07:55.445Z,13.36
2023-03-25T06:08:58.213Z,13.38
2023-03-25T06:10:00.915Z,13.40
2023-03-25T06:11:03.548Z,13.48
2023-03-25T06:12:07.262Z,13.42
2023-03-25T06:13:09.567Z,13.42
2023-03-25T06:14:11.831Z,13.44
2023-03-25T06:15:24.666Z,13.40
2023-03-25T06:16:27.209Z,13.32
2023-03-25T06:17:29.617Z,13.30
2023-03-25T06:18:38.462Z,13.35
2023-03-25T06:19:40.788Z,13.31
2023-03-25T06:20:46.359Z,13.34
2023-03-25T06:21:50.616Z,13.37
2023-03-25T06:22:53.399Z,13.40
2023-03-25T06:23:59.118Z,13.42
2023-03-25T06:25:03.842Z,13.39
2023-03-25T06:26:06.881Z,13.45
2023-03-25T06:27:12.752Z,13.45
2023-03-25T06:28:16.811Z,13.46
2023-03-25T06:29:18.973Z,13.44
2023-03-25T06:30:21.722Z,13.42
2023-03-25T06:31:30.869Z,13.43
2023-03-25T06:32:33.468Z,13.38
2023-03-25T06:33:42.516Z,13.23
2023-03-25T06:34:41.899Z,13.28
2023-03-25T06:35:49.145Z,13.20
2023-03-25T06:36:54.637Z,13.21
2023-03-25T06:37:57.024Z,13.17
2023-03-25T06:39:05.681Z,13.14
2023-03-25T06:40:09.764Z,13.15
2023-03-25T06:41:13.417Z,13.12
2023-03-25T06:42:16.093Z,13.14
2023-03-25T06:43:23.207Z,13.12
2023-03-25T06:44:32.703Z,13.13
2023-03-25T06:45:52.616Z,13.12
2023-03-25T06:47:01.673Z,13.16
2023-03-25T06:48:09.970Z,13.12
2023-03-25T06:49:13.039Z,13.10
2023-03-25T06:50:15.721Z,13.11
2023-03-25T06:51:18.368Z,13.09
2023-03-25T06:52:21.147Z,13.12
2023-03-25T06:53:24.182Z,13.15
2023-03-25T06:54:27.119Z,13.20
2023-03-25T06:55:29.746Z,13.26
2023-03-25T06:56:32.232Z,13.29
2023-03-25T06:57:35.594Z,13.28
2023-03-25T06:58:38.479Z,13.25
2023-03-25T06:59:41.508Z,13.27
2023-03-25T07:00:45.914Z,13.33
2023-03-25T07:01:48.411Z,13.35
2023-03-25T07:02:50.895Z,13.39
2023-03-25T07:03:52.978Z,13.42
2023-03-25T07:04:57.514Z,13.50
2023-03-25T07:06:00.165Z,13.57
2023-03-25T07:07:02.381Z,13.49
2023-03-25T07:08:05.162Z,13.51
2023-03-25T07:09:08.028Z,13.44
2023-03-25T07:10:13.207Z,13.48
2023-03-25T07:11:19.155Z,13.54
2023-03-25T07:12:23.619Z,13.51
2023-03-25T07:13:26.786Z,13.57
2023-03-25T07:14:29.085Z,13.57
2023-03-25T07:15:31.417Z,13.60
2023-03-25T07:16:34.105Z,13.61
2023-03-25T07:17:36.442Z,13.58
2023-03-25T07:18:39.128Z,13.52
2023-03-25T07:19:43.579Z,13.46
2023-03-25T07:20:46.339Z,13.44
2023-03-25T07:21:49.599Z,13.43
2023-03-25T07:22:55.052Z,13.52
2023-03-25T07:23:57.696Z,13.48
2023-03-25T07:24:59.884Z,13.44
2023-03-25T07:26:02.344Z,13.50
2023-03-25T07:27:04.753Z,13.46
2023-03-25T07:28:08.694Z,13.51
2023-03-25T07:29:12.576Z,13.58
2023-03-25T07:30:15.891Z,13.60
2023-03-25T07:31:18.283Z,13.62
2023-03-25T07:32:20.776Z,13.67
2023-03-25T07:33:24.270Z,13.74
2023-03-25T07:34:27.062Z,13.79
2023-03-25T07:35:29.352Z,13.89
2023-03-25T07:36:31.554Z,13.80
2023-03-25T07:37:33.884Z,13.78
2023-03-25T07:38:37.383Z,13.81
2023-03-25T07:39:40.598Z,13.86
2023-03-25T07:40:43.363Z,13.87
2023-03-25T07:41:47.542Z,13.86
2023-03-25T07:42:58.493Z,13.99
2023-03-25T07:44:20.952Z,14.03
2023-03-25T07:45:25.212Z,14.03
2023-03-25T07:47:38.250Z,14.30
2023-03-25T07:48:41.931Z,14.26
2023-03-25T07:49:44.270Z,14.34
2023-03-25T07:50:49.337Z,14.48
2023-03-25T07:51:52.177Z,14.56
2023-03-25T07:52:54.912Z,14.64
2023-03-25T07:54:04.976Z,14.65
2023-03-25T07:55:02.852Z,14.67
2023-03-25T07:56:07.206Z,14.76
2023-03-25T07:57:10.677Z,14.76
2023-03-25T07:58:13.417Z,14.72
2023-03-25T07:59:15.473Z,14.74
2023-03-25T08:00:18.270Z,14.69
2023-03-25T08:01:20.291Z,14.72
2023-03-25T08:02:23.527Z,14.75
2023-03-25T08:03:27.370Z,14.83
2023-03-25T08:04:29.980Z,14.76
2023-03-25T08:05:32.797Z,14.71
2023-03-25T08:06:35.273Z,14.78
2023-03-25T08:07:38.041Z,14.78
2023-03-25T08:08:41.217Z,14.77
2023-03-25T08:09:43.363Z,14.75
2023-03-25T08:10:47.511Z,14.70
2023-03-25T08:11:51.254Z,14.77
2023-03-25T08:12:54.942Z,14.76
2023-03-25T08:14:00.021Z,14.66
2023-03-25T08:15:03.220Z,14.70
2023-03-25T08:16:14.780Z,14.70
2023-03-25T08:17:17.357Z,14.74
2023-03-25T08:18:19.763Z,14.66
2023-03-25T08:19:22.977Z,14.62
2023-03-25T08:20:25.706Z,14.65
2023-03-25T08:21:28.435Z,14.65
2023-03-25T08:22:31.798Z,14.69
2023-03-25T08:23:35.998Z,14.74
2023-03-25T08:24:38.258Z,14.73
2023-03-25T08:25:42.310Z,14.75
2023-03-25T08:26:44.595Z,14.71
2023-03-25T08:27:46.776Z,14.71
2023-03-25T08:28:48.970Z,14.72
2023-03-25T08:29:55.532Z,14.70
2023-03-25T08:30:58.650Z,14.73
2023-03-25T08:32:01.334Z,14.80
2023-03-25T08:33:07.132Z,14.90
2023-03-25T08:34:10.002Z,14.85
2023-03-25T08:35:13.322Z,14.93
2023-03-25T08:36:18.148Z,15.00
2023-03-25T08:37:21.076Z,15.05
2023-03-25T08:38:24.724Z,15.13
2023-03-25T08:39:28.733Z,15.15
2023-03-25T08:40:32.784Z,15.23
2023-03-25T08:41:37.485Z,15.27
2023-03-25T08:42:40.857Z,15.33
2023-03-25T08:43:45.069Z,15.36
2023-03-25T08:44:47.797Z,15.33
2023-03-25T08:45:50.519Z,15.38
2023-03-25T08:46:53.014Z,15.44
2023-03-25T08:47:55.416Z,15.44
2023-03-25T08:48:58.374Z,15.38
2023-03-25T08:50:00.739Z,15.33
2023-03-25T08:51:04.252Z,15.38
2023-03-25T08:52:08.111Z,15.41
2023-03-25T08:53:10.536Z,15.33
2023-03-25T08:54:12.860Z,15.36
2023-03-25T08:55:15.739Z,15.37
2023-03-25T08:56:18.158Z,15.40
2023-03-25T08:57:20.796Z,15.43
2023-03-25T08:58:24.367Z,15.27
2023-03-25T08:59:27.690Z,15.21
2023-03-25T09:00:31.025Z,15.18
2023-03-25T09:01:33.962Z,15.16
2023-03-25T09:02:36.419Z,15.18
2023-03-25T09:03:40.332Z,15.15
2023-03-25T09:04:43.247Z,15.13
2023-03-25T09:05:46.247Z,15.14
2023-03-25T09:07:11.378Z,15.17
2023-03-25T09:07:54.145Z,15.17
2023-03-25T09:08:56.757Z,15.28
2023-03-25T09:09:58.906Z,15.24
2023-03-25T09:11:01.704Z,15.24
2023-03-25T09:12:05.280Z,15.30
2023-03-25T09:13:09.231Z,15.31
2023-03-25T09:14:12.727Z,15.31
2023-03-25T09:15:15.137Z,15.40
2023-03-25T09:16:18.006Z,15.32
2023-03-25T09:17:20.498Z,15.40
2023-03-25T09:18:22.857Z,15.51
2023-03-25T09:19:25.655Z,15.53
2023-03-25T09:20:29.061Z,15.62
2023-03-25T09:21:31.360Z,15.62
2023-03-25T09:22:34.400Z,15.72
2023-03-25T09:23:36.998Z,15.70
2023-03-25T09:24:40.102Z,15.67
2023-03-25T09:25:43.165Z,15.70
2023-03-25T09:26:46.670Z,15.65
2023-03-25T09:27:49.076Z,15.58
2023-03-25T09:28:52.228Z,15.56
2023-03-25T09:29:54.722Z,15.52
2023-03-25T09:30:58.644Z,15.49
2023-03-25T09:32:01.655Z,15.42
2023-03-25T09:33:04.627Z,15.38
2023-03-25T09:34:08.069Z,15.39
2023-03-25T09:35:12.519Z,15.43
2023-03-25T09:36:16.239Z,15.56
2023-03-25T09:37:19.705Z,15.51
2023-03-25T09:38:22.997Z,15.51
2023-03-25T09:39:25.970Z,15.59
2023-03-25T09:40:28.697Z,15.67
2023-03-25T09:42:06.909Z,15.82
2023-03-25T09:43:21.810Z,15.94
2023-03-25T09:44:31.343Z,16.00
2023-03-25T09:45:47.083Z,15.94
2023-03-25T09:46:51.264Z,16.03
2023-03-25T09:48:02.947Z,16.05
2023-03-25T09:49:11.876Z,15.95
2023-03-25T09:50:18.467Z,15.94
2023-03-25T09:51:30.624Z,15.97
2023-03-25T09:52:46.486Z,16.02
2023-03-25T09:53:52.449Z,16.02
2023-03-25T09:54:58.944Z,15.89
2023-03-25T09:56:06.693Z,15.89
2023-03-25T09:57:13.220Z,15.99
2023-03-25T09:58:31.686Z,16.02
2023-03-25T10:01:02.882Z,16.26
2023-03-25T10:02:32.818Z,16.15
2023-03-25T10:03:57.046Z,16.16
2023-03-25T10:05:18.679Z,16.01
2023-03-25T10:06:26.060Z,16.08
2023-03-25T10:08:02.246Z,16.01
2023-03-25T10:09:20.282Z,16.03
2023-03-25T10:10:26.916Z,16.13
2023-03-25T10:11:49.330Z,16.11
2023-03-25T10:12:58.432Z,16.10
2023-03-25T10:14:21.027Z,16.06
2023-03-25T10:15:33.057Z,16.04
2023-03-25T10:16:55.622Z,16.15
2023-03-25T10:18:11.714Z,16.13
2023-03-25T10:19:38.367Z,16.17
2023-03-25T10:21:02.883Z,16.23
2023-03-25T10:22:09.043Z,16.17
2023-03-25T10:23:17.985Z,16.20
2023-03-25T10:24:23.737Z,16.25
2023-03-25T10:25:28.898Z,16.29
2023-03-25T10:26:49.857Z,16.33
2023-03-25T10:27:54.257Z,16.45
2023-03-25T10:29:09.298Z,16.50
2023-03-25T10:30:17.736Z,16.55
2023-03-25T10:31:25.333Z,16.60
2023-03-25T10:32:34.203Z,16.45
2023-03-25T10:33:43.086Z,16.54
2023-03-25T10:34:53.282Z,16.58
2023-03-25T10:36:06.455Z,16.56
2023-03-25T10:37:17.729Z,16.65
2023-03-25T10:38:24.164Z,16.68
2023-03-25T10:39:31.948Z,16.66
2023-03-25T10:40:40.964Z,16.60
2023-03-25T10:41:46.589Z,16.51
2023-03-25T10:43:27.536Z,16.53
2023-03-25T10:44:31.025Z,16.56
2023-03-25T10:45:35.685Z,16.49
2023-03-25T10:46:47.933Z,16.47
2023-03-25T10:47:53.740Z,16.53
2023-03-25T10:49:00.558Z,16.52
2023-03-25T10:50:04.071Z,16.39
2023-03-25T10:51:19.048Z,16.36
2023-03-25T10:52:22.099Z,16.29
2023-03-25T10:53:29.027Z,16.21
2023-03-25T10:54:40.487Z,16.16
2023-03-25T10:55:44.970Z,16.06
2023-03-25T10:56:51.318Z,16.15
2023-03-25T10:57:55.855Z,16.25
2023-03-25T10:59:02.389Z,16.37
2023-03-25T11:01:35.963Z,16.73
2023-03-25T11:02:39.011Z,16.63
2023-03-25T11:03:44.369Z,16.66
2023-03-25T11:04:50.536Z,16.69
2023-03-25T11:05:53.488Z,16.69
2023-03-25T11:06:58.864Z,16.70
2023-03-25T11:08:14.703Z,16.55
2023-03-25T11:09:14.916Z,16.59
2023-03-25T11:10:24.672Z,16.70
2023-03-25T11:11:35.020Z,16.68
2023-03-25T11:12:43.440Z,16.63
2023-03-25T11:13:46.342Z,16.57
2023-03-25T11:14:58.653Z,16.61
2023-03-25T11:16:03.183Z,16.70
2023-03-25T11:17:15.995Z,16.68
2023-03-25T11:18:21.925Z,16.65
2023-03-25T11:19:31.056Z,16.68
2023-03-25T11:20:43.666Z,16.50
2023-03-25T11:21:49.360Z,16.46
2023-03-25T11:22:55.011Z,16.56
2023-03-25T11:23:59.678Z,16.63
2023-03-25T11:25:08.466Z,16.57
2023-03-25T11:26:24.342Z,16.62
2023-03-25T11:27:29.379Z,16.56
2023-03-25T11:28:41.232Z,16.57
2023-03-25T11:29:48.138Z,16.64
2023-03-25T11:31:20.555Z,16.63
2023-03-25T11:32:26.060Z,16.69
2023-03-25T11:33:28.506Z,16.70
2023-03-25T11:34:33.504Z,16.69
2023-03-25T11:35:39.463Z,16.81
2023-03-25T11:37:04.118Z,16.85
2023-03-25T11:38:22.775Z,16.83
2023-03-25T11:39:40.043Z,16.78
2023-03-25T11:40:57.893Z,16.89
2023-03-25T11:42:03.122Z,16.91
2023-03-25T11:43:09.590Z,16.86
2023-03-25T11:44:28.366Z,16.90
2023-03-25T11:45:39.297Z,16.96
2023-03-25T11:46:45.188Z,16.88
2023-03-25T11:47:48.464Z,17.05
2023-03-25T11:48:51.916Z,17.07
2023-03-25T11:49:56.022Z,17.28
2023-03-25T11:51:05.255Z,17.29
2023-03-25T11:52:11.541Z,17.39
2023-03-25T11:53:18.304Z,17.34
2023-03-25T11:54:20.598Z,17.28
2023-03-25T11:55:26.631Z,17.24
2023-03-25T11:56:32.876Z,17.19
2023-03-25T11:57:38.833Z,17.17
2023-03-25T11:58:41.455Z,17.18
2023-03-25T11:59:46.440Z,17.03
2023-03-25T12:00:50.957Z,16.97
2023-03-25T12:02:06.505Z,16.97
2023-03-25T12:03:19.732Z,16.94
2023-03-25T12:04:24.252Z,16.97
2023-03-25T12:05:26.513Z,16.96
2023-03-25T12:06:29.994Z,16.98
2023-03-25T12:07:46.049Z,16.97
2023-03-25T12:09:00.050Z,16.97
2023-03-25T12:10:06.871Z,16.84
2023-03-25T12:11:16.235Z,17.00
2023-03-25T12:12:32.055Z,17.00
2023-03-25T12:13:55.825Z,16.98
2023-03-25T12:15:21.459Z,16.96
2023-03-25T12:16:54.131Z,16.90
2023-03-25T12:18:03.152Z,16.90
2023-03-25T12:19:32.425Z,16.94
2023-03-25T12:20:47.224Z,17.02
2023-03-25T12:22:00.277Z,17.07
2023-03-25T12:23:19.021Z,17.14
2023-03-25T12:24:43.913Z,17.06
2023-03-25T12:25:52.368Z,16.84
2023-03-25T12:27:07.649Z,16.65
2023-03-25T12:28:48.125Z,16.64
2023-03-25T12:30:00.331Z,16.52
2023-03-25T12:31:27.691Z,16.34
2023-03-25T12:32:33.687Z,16.24
2023-03-25T12:34:00.765Z,16.24
2023-03-25T12:36:29.975Z,16.42
2023-03-25T12:37:38.780Z,16.40
2023-03-25T12:38:57.808Z,16.47
2023-03-25T12:40:21.162Z,16.48
2023-03-25T12:41:46.738Z,16.41
2023-03-25T12:44:34.385Z,16.31
2023-03-25T12:45:44.559Z,16.17
2023-03-25T12:47:08.925Z,16.10
2023-03-25T12:48:19.488Z,16.18
2023-03-25T12:49:41.041Z,16.12
2023-03-25T12:51:00.359Z,16.22
2023-03-25T12:52:31.552Z,16.19
2023-03-25T12:53:41.649Z,16.16
2023-03-25T12:55:05.328Z,16.04
2023-03-25T12:56:13.971Z,15.98
2023-03-25T12:57:40.002Z,16.01
2023-03-25T12:58:58.631Z,16.02
2023-03-25T13:00:08.247Z,16.07
2023-03-25T13:01:38.502Z,16.16
2023-03-25T13:03:02.741Z,16.12
2023-03-25T13:04:15.308Z,16.23
2023-03-25T13:05:39.334Z,16.14
2023-03-25T13:07:02.236Z,16.19
2023-03-25T13:08:22.443Z,16.07
2023-03-25T13:09:37.509Z,16.02
2023-03-25T13:10:43.943Z,15.95
2023-03-25T13:11:55.885Z,15.92
2023-03-25T13:13:01.548Z,15.99
2023-03-25T13:14:11.166Z,16.07
2023-03-25T13:15:27.875Z,16.12
2023-03-25T13:16:33.670Z,16.21
2023-03-25T13:17:42.916Z,16.29
2023-03-25T13:18:51.669Z,16.31
2023-03-25T13:19:58.610Z,16.34
2023-03-25T13:21:14.422Z,16.38
2023-03-25T13:23:37.603Z,16.53
2023-03-25T13:24:52.359Z,16.22
2023-03-25T13:26:01.472Z,16.08
2023-03-25T13:27:05.659Z,15.99
2023-03-25T13:28:11.965Z,15.97
2023-03-25T13:29:27.438Z,15.97
2023-03-25T13:30:39.317Z,16.01
2023-03-25T13:31:46.492Z,16.02
2023-03-25T13:32:52.328Z,16.01
2023-03-25T13:34:30.353Z,15.97
2023-03-25T13:35:48.743Z,16.01
2023-03-25T13:37:21.862Z,15.96
2023-03-25T13:38:33.460Z,15.96
2023-03-25T13:39:45.827Z,15.97
2023-03-25T13:41:09.116Z,16.03
2023-03-25T13:42:15.520Z,16.05
2023-03-25T13:44:43.813Z,16.09
2023-03-25T13:45:56.882Z,16.03
2023-03-25T13:47:03.290Z,16.08
2023-03-25T13:48:15.072Z,16.09
2023-03-25T13:49:37.601Z,16.09
2023-03-25T13:50:40.400Z,16.18
2023-03-25T13:51:43.939Z,16.23
2023-03-25T13:52:50.104Z,16.26
2023-03-25T13:54:02.120Z,16.21
2023-03-25T13:56:46.809Z,16.56
2023-03-25T13:59:30.528Z,16.69
2023-03-25T14:00:39.374Z,16.84
2023-03-25T14:02:02.009Z,17.08
2023-03-25T14:03:43.398Z,17.39
2023-03-25T14:05:09.263Z,17.73
2023-03-25T14:08:25.866Z,18.72
2023-03-25T14:09:50.296Z,19.22
2023-03-25T14:11:15.751Z,19.54
2023-03-25T14:13:32.683Z,19.83
2023-03-25T14:14:41.504Z,19.79
2023-03-25T14:16:53.907Z,19.55
2023-03-25T14:19:06.985Z,19.29
2023-03-25T14:20:12.433Z,19.18
2023-03-25T14:21:33.722Z,19.08
2023-03-25T14:22:43.644Z,18.97
2023-03-25T14:23:46.316Z,18.82
2023-03-25T14:24:51.246Z,18.77
2023-03-25T14:25:59.416Z,18.44
2023-03-25T14:27:20.347Z,18.13
2023-03-25T14:28:43.141Z,18.05
2023-03-25T14:29:49.035Z,18.01
2023-03-25T14:31:16.938Z,17.96
2023-03-25T14:32:23.621Z,17.92
2023-03-25T14:33:26.402Z,17.90
2023-03-25T14:34:28.769Z,17.79
2023-03-25T14:35:38.531Z,17.73
2023-03-25T14:36:46.113Z,17.68
2023-03-25T14:37:49.430Z,17.65
2023-03-25T14:38:55.842Z,17.66
2023-03-25T14:40:04.077Z,17.63
2023-03-25T14:41:06.674Z,17.61
2023-03-25T14:42:12.851Z,17.59
2023-03-25T14:43:39.743Z,17.58
2023-03-25T14:44:50.969Z,17.54
2023-03-25T14:46:18.800Z,17.48
2023-03-25T14:47:31.269Z,17.44
2023-03-25T14:48:37.193Z,17.42
2023-03-25T14:49:52.938Z,17.41
2023-03-25T14:51:27.874Z,17.39
2023-03-25T14:52:34.472Z,17.38
2023-03-25T14:53:38.943Z,17.34
2023-03-25T14:54:43.116Z,17.29
2023-03-25T14:55:47.113Z,17.29
2023-03-25T14:56:57.402Z,17.28